createdAt,value
2022-10-24T00:01:49.858Z,10.00
2022-10-24T00:04:36.150Z,9.77
2022-10-24T00:07:22.379Z,12.43
2022-10-24T00:10:08.027Z,12.02
2022-10-24T00:12:55.337Z,10.68
2022-10-24T00:15:40.682Z,9.98
2022-10-24T00:18:26.299Z,10.68
2022-10-24T00:21:12.516Z,16.05
2022-10-24T00:23:58.089Z,9.32
2022-10-24T00:26:43.461Z,10.35
2022-10-24T00:29:32.969Z,10.60
2022-10-24T00:32:19.525Z,11.82
2022-10-24T00:35:05.138Z,12.02
2022-10-24T00:37:53.368Z,12.10
2022-10-24T00:40:39.631Z,11.15
2022-10-24T00:43:33.690Z,11.23
2022-10-24T00:46:21.211Z,12.47
2022-10-24T00:49:10.729Z,11.40
2022-10-24T00:51:56.011Z,10.27
2022-10-24T00:54:41.687Z,11.40
2022-10-24T00:57:50.877Z,9.90
2022-10-24T01:00:47.004Z,10.68
2022-10-24T01:03:32.489Z,11.57
2022-10-24T01:06:48.494Z,12.02
2022-10-24T01:10:01.868Z,10.50
2022-10-24T01:13:05.552Z,11.38
2022-10-24T01:16:02.144Z,12.30
2022-10-24T01:19:12.882Z,12.25
2022-10-24T01:22:28.055Z,10.18
2022-10-24T01:25:52.041Z,13.18
2022-10-24T01:28:43.124Z,14.15
2022-10-24T01:32:02.409Z,14.63
2022-10-24T01:35:05.589Z,10.95
2022-10-24T01:38:23.713Z,13.10
2022-10-24T01:41:21.303Z,12.18
2022-10-24T01:44:21.040Z,15.07
2022-10-24T01:47:14.422Z,13.25
2022-10-24T01:50:04.927Z,14.37
2022-10-24T01:52:56.616Z,14.23
2022-10-24T01:55:42.953Z,12.98
2022-10-24T01:58:28.380Z,16.40
2022-10-24T02:01:18.960Z,12.82
2022-10-24T02:04:13.014Z,14.43
2022-10-24T02:07:00.416Z,16.40
2022-10-24T02:09:50.109Z,16.80
2022-10-24T02:12:37.052Z,14.18
2022-10-24T02:15:53.740Z,16.05
2022-10-24T02:18:39.661Z,14.75
2022-10-24T02:21:34.052Z,14.40
2022-10-24T02:27:13.707Z,13.23
2022-10-24T02:30:05.848Z,16.20
2022-10-24T02:32:55.802Z,14.68
2022-10-24T02:35:53.301Z,15.95
2022-10-24T02:38:55.972Z,14.52
2022-10-24T02:41:47.307Z,14.40
2022-10-24T02:44:36.425Z,16.15
2022-10-24T02:47:25.359Z,18.17
2022-10-24T02:50:11.141Z,14.45
2022-10-24T02:52:58.626Z,16.67
2022-10-24T02:55:44.831Z,14.10
2022-10-24T02:58:30.477Z,13.43
2022-10-24T03:01:16.164Z,13.80
2022-10-24T03:04:02.281Z,12.73
2022-10-24T03:06:47.699Z,14.15
2022-10-24T03:09:33.164Z,15.18
2022-10-24T03:12:18.843Z,14.75
2022-10-24T03:15:04.217Z,13.10
2022-10-24T03:17:49.649Z,15.50
2022-10-24T03:20:35.585Z,12.05
2022-10-24T03:23:20.978Z,13.52
2022-10-24T03:26:06.850Z,14.75
2022-10-24T03:28:53.542Z,13.88
2022-10-24T03:31:38.928Z,12.25
2022-10-24T03:34:24.481Z,13.25
2022-10-24T03:37:09.982Z,14.77
2022-10-24T03:39:55.283Z,12.02
2022-10-24T03:42:41.171Z,12.07
2022-10-24T03:45:27.252Z,13.20
2022-10-24T03:48:12.674Z,11.98
2022-10-24T03:50:58.222Z,12.52
2022-10-24T03:53:45.327Z,11.30
2022-10-24T03:56:31.009Z,10.95
2022-10-24T03:59:16.370Z,11.80
2022-10-24T04:02:02.048Z,11.90
2022-10-24T04:04:48.014Z,11.07
2022-10-24T04:07:33.694Z,12.63
2022-10-24T04:10:19.398Z,11.88
2022-10-24T04:13:04.959Z,11.25
2022-10-24T04:15:50.420Z,12.05
2022-10-24T04:18:36.352Z,9.48
2022-10-24T04:21:22.177Z,9.40
2022-10-24T04:24:08.133Z,10.55
2022-10-24T04:26:53.536Z,11.25
2022-10-24T04:29:38.941Z,10.23
2022-10-24T04:32:24.403Z,11.82
2022-10-24T04:35:09.628Z,9.90
2022-10-24T04:37:55.154Z,11.43
2022-10-24T04:40:40.976Z,13.30
2022-10-24T04:43:26.438Z,11.38
2022-10-24T04:46:11.921Z,9.68
2022-10-24T04:48:57.364Z,10.65
2022-10-24T04:51:42.814Z,10.15
2022-10-24T04:54:28.316Z,10.27
2022-10-24T04:57:13.619Z,10.48
2022-10-24T04:59:59.258Z,10.15
2022-10-24T05:02:44.658Z,9.57
2022-10-24T05:05:30.154Z,9.32
2022-10-24T05:08:15.955Z,9.38
2022-10-24T05:11:01.964Z,12.57
2022-10-24T05:13:47.543Z,8.80
2022-10-24T05:16:32.825Z,8.68
2022-10-24T05:19:18.529Z,11.05
2022-10-24T05:22:06.099Z,9.77
2022-10-24T05:24:54.177Z,9.27
2022-10-24T05:27:39.909Z,8.43
2022-10-24T05:30:26.272Z,10.43
2022-10-24T05:33:21.608Z,9.65
2022-10-24T05:36:19.285Z,9.20
2022-10-24T05:39:04.738Z,9.10
2022-10-24T05:41:54.476Z,8.57
2022-10-24T05:44:40.942Z,10.27
2022-10-24T05:47:28.471Z,7.97
2022-10-24T05:50:16.481Z,9.27
2022-10-24T05:53:02.058Z,10.88
2022-10-24T05:55:47.434Z,10.18
2022-10-24T05:58:32.997Z,11.98
2022-10-24T06:01:18.504Z,9.13
2022-10-24T06:04:07.882Z,10.57
2022-10-24T06:07:03.001Z,11.10
2022-10-24T06:09:48.399Z,13.48
2022-10-24T06:12:33.807Z,12.32
2022-10-24T06:15:20.920Z,10.15
2022-10-24T06:18:10.248Z,11.75
2022-10-24T06:20:58.765Z,10.38
2022-10-24T06:23:47.253Z,8.95
2022-10-24T06:26:37.047Z,10.57
2022-10-24T06:29:22.656Z,12.82
2022-10-24T06:32:08.240Z,10.73
2022-10-24T06:34:53.632Z,11.35
2022-10-24T06:37:39.631Z,10.25
2022-10-24T06:40:27.113Z,10.52
2022-10-24T06:43:12.442Z,10.93
2022-10-24T06:45:57.898Z,9.40
2022-10-24T06:48:43.435Z,10.40
2022-10-24T06:51:33.014Z,11.07
2022-10-24T06:54:18.490Z,11.40
2022-10-24T06:57:03.859Z,10.77
2022-10-24T06:59:49.882Z,10.32
2022-10-24T07:02:38.213Z,11.52
2022-10-24T07:05:25.044Z,12.60
2022-10-24T07:08:10.468Z,8.73
2022-10-24T07:10:58.725Z,8.18
2022-10-24T07:13:44.775Z,9.57
2022-10-24T07:16:30.118Z,13.05
2022-10-24T07:19:16.147Z,12.15
2022-10-24T07:22:01.775Z,10.13
2022-10-24T07:24:47.982Z,9.20
2022-10-24T07:27:33.775Z,13.98
2022-10-24T07:30:19.206Z,9.57
2022-10-24T07:33:04.566Z,10.77
2022-10-24T07:35:50.139Z,8.48
2022-10-24T07:38:37.659Z,9.07
2022-10-24T07:41:25.253Z,9.00
2022-10-24T07:44:11.585Z,8.07
2022-10-24T07:47:02.670Z,8.90
2022-10-24T07:49:48.411Z,10.45
2022-10-24T07:52:34.189Z,10.55
2022-10-24T07:55:22.090Z,10.55
2022-10-24T07:58:07.969Z,10.23
2022-10-24T08:00:55.358Z,10.02
2022-10-24T08:03:42.241Z,8.40
2022-10-24T08:06:29.900Z,10.23
2022-10-24T08:09:15.952Z,10.48
2022-10-24T08:12:01.549Z,10.52
2022-10-24T08:14:47.370Z,8.40
2022-10-24T08:17:51.280Z,8.30
2022-10-24T08:20:39.068Z,9.13
2022-10-24T08:23:25.601Z,9.05
2022-10-24T08:26:11.186Z,8.07
2022-10-24T08:28:57.770Z,9.00
2022-10-24T08:31:44.316Z,12.38
2022-10-24T08:34:32.658Z,8.38
2022-10-24T08:37:18.508Z,8.25
2022-10-24T08:40:04.444Z,8.43
2022-10-24T08:42:50.289Z,10.32
2022-10-24T08:45:52.799Z,9.95
2022-10-24T08:48:43.447Z,8.25
2022-10-24T08:51:57.562Z,9.15
2022-10-24T08:54:49.289Z,8.43
2022-10-24T08:57:53.355Z,6.93
2022-10-24T09:00:44.925Z,6.18
2022-10-24T09:03:56.618Z,6.63
2022-10-24T09:06:45.288Z,7.00
2022-10-24T09:09:45.479Z,8.98
2022-10-24T09:12:34.504Z,6.85
2022-10-24T09:15:20.814Z,9.20
2022-10-24T09:18:10.113Z,8.35
2022-10-24T09:20:55.985Z,6.30
2022-10-24T09:23:44.075Z,7.40
2022-10-24T09:26:37.127Z,6.68
2022-10-24T09:29:23.054Z,8.20
2022-10-24T09:32:08.384Z,7.28
2022-10-24T09:34:53.949Z,7.97
2022-10-24T09:37:55.096Z,8.48
2022-10-24T09:40:42.044Z,8.30
2022-10-24T09:43:46.076Z,7.72
2022-10-24T09:46:35.075Z,6.38
2022-10-24T09:49:35.595Z,7.25
2022-10-24T09:52:26.918Z,6.43
2022-10-24T09:55:40.873Z,7.20
2022-10-24T09:58:43.534Z,8.00
2022-10-24T10:01:34.930Z,8.07
2022-10-24T10:04:23.383Z,7.75
2022-10-24T10:07:09.469Z,6.40
2022-10-24T10:09:56.752Z,7.50
2022-10-24T10:12:55.290Z,7.45
2022-10-24T10:15:52.418Z,6.38
2022-10-24T10:18:42.633Z,5.05
2022-10-24T10:21:33.622Z,5.60
2022-10-24T10:24:19.015Z,5.32
2022-10-24T10:27:05.003Z,7.22
2022-10-24T10:29:53.517Z,5.72
2022-10-24T10:32:48.863Z,8.02
2022-10-24T10:35:53.407Z,6.80
2022-10-24T10:41:58.832Z,4.32
2022-10-24T10:44:56.379Z,5.53
2022-10-24T10:48:06.579Z,6.60
2022-10-24T10:51:08.259Z,5.10
2022-10-24T10:54:05.902Z,6.20
2022-10-24T10:57:12.695Z,5.55
2022-10-24T11:00:24.024Z,5.50
2022-10-24T11:03:24.847Z,6.20
2022-10-24T11:06:40.887Z,5.18
2022-10-24T11:09:49.998Z,5.70
2022-10-24T11:12:44.515Z,6.35
2022-10-24T11:15:39.542Z,7.18
2022-10-24T11:18:33.085Z,6.22
2022-10-24T11:21:29.946Z,6.55
2022-10-24T11:24:20.948Z,7.68
2022-10-24T11:27:09.139Z,7.72
2022-10-24T11:30:05.894Z,6.10
2022-10-24T11:32:58.400Z,6.55
2022-10-24T11:35:49.508Z,8.65
2022-10-24T11:38:39.680Z,4.30
2022-10-24T11:41:42.836Z,5.47
2022-10-24T11:44:54.048Z,5.30
2022-10-24T11:48:01.615Z,6.30
2022-10-24T11:50:57.810Z,7.05
2022-10-24T11:53:49.185Z,6.93
2022-10-24T11:56:43.409Z,4.35
2022-10-24T11:59:38.503Z,5.40
2022-10-24T12:02:49.324Z,6.40
2022-10-24T12:06:24.680Z,5.28
2022-10-24T12:09:13.197Z,5.05
2022-10-24T12:12:44.121Z,3.95
2022-10-24T12:15:41.624Z,4.68
2022-10-24T12:18:44.027Z,5.32
2022-10-24T12:21:33.746Z,6.90
2022-10-24T12:24:20.455Z,5.30
2022-10-24T12:27:14.491Z,6.28
2022-10-24T12:30:01.852Z,5.25
2022-10-24T12:33:26.465Z,5.97
2022-10-24T12:36:13.260Z,5.70
2022-10-24T12:39:16.094Z,6.03
2022-10-24T12:42:02.680Z,3.72
2022-10-24T12:45:02.693Z,5.35
2022-10-24T12:47:51.857Z,4.35
2022-10-24T12:50:40.236Z,3.22
2022-10-24T12:54:14.381Z,4.70
2022-10-24T12:57:08.575Z,3.85
2022-10-24T13:03:18.213Z,4.90
2022-10-24T13:06:24.654Z,5.28
2022-10-24T13:09:32.386Z,3.03
2022-10-24T13:12:33.188Z,6.22
2022-10-24T13:15:43.703Z,4.05
2022-10-24T13:18:54.076Z,3.40
2022-10-24T13:21:53.893Z,5.75
2022-10-24T13:24:42.419Z,7.18
2022-10-24T13:27:30.980Z,5.18
2022-10-24T13:30:16.910Z,8.55
2022-10-24T13:33:03.013Z,5.28
2022-10-24T13:35:50.150Z,6.20
2022-10-24T13:38:36.574Z,3.17
2022-10-24T13:41:23.652Z,5.70
2022-10-24T13:44:11.966Z,3.40
2022-10-24T13:47:05.050Z,7.40
2022-10-24T13:49:56.320Z,6.10
2022-10-24T13:53:09.953Z,4.90
2022-10-24T13:56:04.561Z,5.32
2022-10-24T13:58:58.249Z,5.57
2022-10-24T14:01:52.768Z,4.00
2022-10-24T14:04:40.155Z,3.88
2022-10-24T14:07:27.682Z,5.18
2022-10-24T14:10:33.020Z,5.80
2022-10-24T14:13:19.644Z,3.45
2022-10-24T14:16:11.700Z,3.38
2022-10-24T14:18:58.389Z,4.15
2022-10-24T14:21:43.957Z,6.05
2022-10-24T14:24:41.013Z,4.10
2022-10-24T14:27:31.869Z,5.00
2022-10-24T14:30:20.812Z,8.10
2022-10-24T14:33:07.797Z,6.90
2022-10-24T14:35:56.944Z,10.57
2022-10-24T14:38:45.458Z,9.02
2022-10-24T14:41:32.870Z,5.68
2022-10-24T14:44:20.206Z,6.90
2022-10-24T14:47:19.972Z,6.43
2022-10-24T14:50:05.621Z,6.30
2022-10-24T14:52:55.018Z,5.10
2022-10-24T14:55:40.746Z,8.82
2022-10-24T14:58:50.244Z,5.72
2022-10-24T15:01:38.495Z,8.63
2022-10-24T15:04:24.223Z,5.82
2022-10-24T15:07:14.617Z,6.32
2022-10-24T15:10:30.388Z,5.60
2022-10-24T15:13:15.803Z,6.85
2022-10-24T15:16:15.097Z,5.85
2022-10-24T15:19:02.052Z,4.97
2022-10-24T15:21:54.047Z,8.52
2022-10-24T15:24:44.394Z,4.80
2022-10-24T15:27:31.796Z,4.63
2022-10-24T15:30:17.242Z,6.78
2022-10-24T15:33:03.195Z,8.65
2022-10-24T15:35:53.112Z,7.65
2022-10-24T15:38:40.460Z,10.38
2022-10-24T15:41:29.547Z,5.95
2022-10-24T15:44:16.373Z,7.28
2022-10-24T15:47:07.251Z,7.63
2022-10-24T15:49:54.354Z,8.50
2022-10-24T15:55:45.163Z,6.07
2022-10-24T15:58:32.652Z,8.45
2022-10-24T16:01:18.162Z,10.38
2022-10-24T16:04:30.462Z,10.68
2022-10-24T16:07:21.390Z,9.35
2022-10-24T16:10:09.024Z,9.60
2022-10-24T16:12:54.718Z,8.43
2022-10-24T16:15:47.011Z,7.57
2022-10-24T16:18:32.475Z,11.90
2022-10-24T16:21:19.204Z,8.65
2022-10-24T16:24:05.587Z,5.70
2022-10-24T16:26:52.288Z,9.95
2022-10-24T16:29:37.538Z,10.13
2022-10-24T16:32:23.277Z,10.75
2022-10-24T16:35:08.668Z,8.25
2022-10-24T16:37:54.171Z,9.45
2022-10-24T16:43:26.951Z,7.35
2022-10-24T16:46:20.426Z,9.45
2022-10-24T16:51:51.454Z,8.18
2022-10-24T16:54:37.056Z,7.80
2022-10-24T16:57:22.592Z,6.28
2022-10-24T17:00:08.678Z,8.02
2022-10-24T17:02:54.445Z,10.85
2022-10-24T17:05:43.333Z,7.05
2022-10-24T17:08:28.936Z,7.60
2022-10-24T17:11:39.868Z,9.48
2022-10-24T17:14:21.637Z,8.45
2022-10-24T17:17:07.120Z,7.55
2022-10-24T17:19:53.019Z,11.63
2022-10-24T17:22:38.705Z,6.95
2022-10-24T17:25:25.668Z,8.38
2022-10-24T17:28:12.913Z,8.52
2022-10-24T17:30:58.359Z,9.73
2022-10-24T17:33:48.064Z,7.20
2022-10-24T17:36:47.183Z,8.73
2022-10-24T17:39:49.718Z,8.02
2022-10-24T17:42:36.321Z,7.43
2022-10-24T17:45:22.233Z,12.75
2022-10-24T17:48:08.069Z,9.00
2022-10-24T17:50:53.551Z,9.73
2022-10-24T17:53:39.565Z,7.97
2022-10-24T17:56:25.943Z,10.98
2022-10-24T17:59:11.338Z,10.05
2022-10-24T18:01:57.299Z,9.15
2022-10-24T18:04:42.965Z,9.43
2022-10-24T18:07:29.013Z,11.20
2022-10-24T18:10:14.424Z,11.85
2022-10-24T18:13:00.775Z,9.63
2022-10-24T18:16:04.959Z,10.27
2022-10-24T18:18:50.655Z,12.02
2022-10-24T18:21:38.612Z,10.20
2022-10-24T18:24:26.201Z,10.77
2022-10-24T18:27:11.718Z,9.75
2022-10-24T18:29:57.228Z,9.88
2022-10-24T18:32:42.722Z,8.30
2022-10-24T18:35:28.495Z,10.25
2022-10-24T18:38:16.336Z,8.93
2022-10-24T18:41:02.275Z,10.48
2022-10-24T18:43:48.439Z,8.60
2022-10-24T18:46:34.447Z,6.55
2022-10-24T18:49:19.860Z,8.73
2022-10-24T18:52:20.591Z,10.05
2022-10-24T18:55:28.038Z,9.85
2022-10-24T18:58:13.367Z,8.63
2022-10-24T19:01:00.017Z,11.85
2022-10-24T19:03:51.082Z,9.35
2022-10-24T19:06:43.439Z,10.25
2022-10-24T19:09:41.115Z,10.57
2022-10-24T19:12:31.790Z,9.82
2022-10-24T19:15:17.884Z,10.38
2022-10-24T19:18:04.083Z,12.80
2022-10-24T19:20:50.993Z,11.32
2022-10-24T19:23:39.634Z,10.60
2022-10-24T19:26:24.996Z,9.45
2022-10-24T19:29:15.422Z,9.73
2022-10-24T19:32:03.391Z,9.95
2022-10-24T19:34:48.901Z,9.60
2022-10-24T19:37:37.200Z,8.35
2022-10-24T19:40:24.569Z,12.75
2022-10-24T19:43:10.099Z,9.85
2022-10-24T19:46:07.769Z,10.65
2022-10-24T19:49:01.428Z,8.82
2022-10-24T19:51:48.031Z,9.80
2022-10-24T19:54:33.389Z,8.57
2022-10-24T19:57:19.041Z,9.00
2022-10-24T20:00:04.665Z,12.13
2022-10-24T20:02:57.469Z,11.15
2022-10-24T20:05:43.046Z,11.75
2022-10-24T20:08:28.664Z,8.32
2022-10-24T20:11:14.612Z,11.57
2022-10-24T20:14:00.796Z,9.38
2022-10-24T20:16:46.299Z,9.55
2022-10-24T20:19:33.557Z,13.57
2022-10-24T20:22:18.965Z,7.68
2022-10-24T20:25:04.378Z,9.20
2022-10-24T20:27:55.777Z,8.65
2022-10-24T20:30:41.341Z,8.30
2022-10-24T20:33:26.934Z,11.65
2022-10-24T20:36:17.694Z,11.73
2022-10-24T20:39:03.250Z,9.43
2022-10-24T20:41:51.862Z,9.43
2022-10-24T20:44:41.005Z,8.07
2022-10-24T20:47:28.502Z,9.73
2022-10-24T20:50:13.953Z,10.70
2022-10-24T20:52:59.574Z,11.32
2022-10-24T20:55:47.300Z,12.80
2022-10-24T20:58:32.904Z,12.52
2022-10-24T21:01:24.597Z,18.63
2022-10-24T21:04:14.649Z,10.68
2022-10-24T21:07:03.632Z,11.63
2022-10-24T21:09:48.948Z,10.35
2022-10-24T21:12:34.690Z,11.80
2022-10-24T21:15:20.343Z,9.35
2022-10-24T21:18:05.614Z,9.15
2022-10-24T21:20:51.290Z,8.88
2022-10-24T21:23:36.921Z,9.13
2022-10-24T21:26:30.679Z,12.93
2022-10-24T21:29:32.294Z,8.20
2022-10-24T21:32:20.606Z,13.65
2022-10-24T21:35:06.266Z,9.57
2022-10-24T21:37:33.191Z,8.63
2022-10-24T21:40:00.172Z,8.30
2022-10-24T21:42:30.613Z,8.77
2022-10-24T21:44:57.510Z,9.32
2022-10-24T21:47:24.497Z,8.73
2022-10-24T21:49:51.421Z,10.20
2022-10-24T21:52:18.370Z,9.27
2022-10-24T21:54:45.338Z,11.52
2022-10-24T21:57:12.208Z,8.57
2022-10-24T21:59:41.422Z,10.30
2022-10-24T22:02:08.576Z,8.48
2022-10-24T22:04:35.554Z,10.88
2022-10-24T22:07:03.113Z,8.63
2022-10-24T22:09:30.125Z,8.70
2022-10-24T22:11:58.144Z,10.70
2022-10-24T22:14:25.481Z,8.35
2022-10-24T22:16:52.516Z,9.48
2022-10-24T22:19:19.508Z,9.75
2022-10-24T22:21:49.103Z,11.00
2022-10-24T22:24:23.978Z,10.90
2022-10-24T22:26:51.675Z,9.73
2022-10-24T22:29:21.529Z,9.48
2022-10-24T22:31:49.340Z,9.20
2022-10-24T22:34:19.671Z,10.63
2022-10-24T22:36:52.719Z,9.75
2022-10-24T22:39:23.968Z,7.40
2022-10-24T22:41:51.480Z,8.77
2022-10-24T22:44:23.548Z,8.80
2022-10-24T22:47:18.317Z,9.45
2022-10-24T22:50:21.651Z,8.32
2022-10-24T22:52:49.967Z,8.50
2022-10-24T22:55:31.670Z,8.88
2022-10-24T22:57:58.830Z,10.07
2022-10-24T23:00:26.043Z,9.07
2022-10-24T23:03:03.285Z,9.40
2022-10-24T23:05:38.421Z,12.50
2022-10-24T23:08:09.770Z,10.40
2022-10-24T23:10:39.774Z,8.63
2022-10-24T23:13:07.448Z,9.40
2022-10-24T23:15:34.762Z,10.23
2022-10-24T23:18:02.018Z,9.30
2022-10-24T23:20:40.278Z,11.35
2022-10-24T23:23:17.301Z,9.85
2022-10-24T23:26:42.524Z,8.18
2022-10-24T23:29:39.532Z,7.72
2022-10-24T23:32:34.728Z,10.52
2022-10-24T23:35:25.295Z,10.32
2022-10-24T23:38:22.183Z,11.40
2022-10-24T23:41:09.711Z,10.13
2022-10-24T23:43:55.813Z,10.60
2022-10-24T23:46:47.944Z,11.13
2022-10-24T23:49:44.525Z,11.90
2022-10-24T23:52:42.248Z,10.63
2022-10-24T23:55:30.445Z,9.57
2022-10-24T23:58:15.847Z,9.82
